createdAt,value
2023-11-30T00:00:12.886Z,11.90
2023-11-30T00:02:39.485Z,12.00
2023-11-30T00:05:08.439Z,11.94
2023-11-30T00:07:35.329Z,12.29
2023-11-30T00:10:02.425Z,12.69
2023-11-30T00:12:29.109Z,12.49
2023-11-30T00:14:55.713Z,12.12
2023-11-30T00:17:22.350Z,11.96
2023-11-30T00:19:49.062Z,12.21
2023-11-30T00:22:15.856Z,12.63
2023-11-30T00:24:42.443Z,12.78
2023-11-30T00:27:09.098Z,13.58
2023-11-30T00:29:35.705Z,14.02
2023-11-30T00:32:02.758Z,14.13
2023-11-30T00:34:29.365Z,14.46
2023-11-30T00:36:55.953Z,14.59
2023-11-30T00:39:22.675Z,15.71
2023-11-30T00:41:49.384Z,15.33
2023-11-30T00:44:16.625Z,15.08
2023-11-30T00:46:43.236Z,15.44
2023-11-30T00:49:09.927Z,15.68
2023-11-30T00:51:36.586Z,15.93
2023-11-30T00:54:03.945Z,15.65
2023-11-30T00:56:30.620Z,15.70
2023-11-30T00:58:57.281Z,16.39
2023-11-30T01:01:24.990Z,16.80
2023-11-30T01:03:51.624Z,16.03
2023-11-30T01:06:18.383Z,16.64
2023-11-30T01:08:45.174Z,16.66
2023-11-30T01:11:11.925Z,15.89
2023-11-30T01:13:38.746Z,15.57
2023-11-30T01:16:05.620Z,15.35
2023-11-30T01:18:32.369Z,16.04
2023-11-30T01:20:59.156Z,17.42
2023-11-30T01:23:25.743Z,17.57
2023-11-30T01:25:52.374Z,17.26
2023-11-30T01:28:18.988Z,17.47
2023-11-30T01:30:46.835Z,18.03
2023-11-30T01:33:13.605Z,18.24
2023-11-30T01:35:40.307Z,16.66
2023-11-30T01:38:06.956Z,16.73
2023-11-30T01:40:33.763Z,17.61
2023-11-30T01:43:00.440Z,17.55
2023-11-30T01:45:27.732Z,17.20
2023-11-30T01:47:54.537Z,17.20
2023-11-30T01:50:22.064Z,16.93
2023-11-30T01:52:48.796Z,17.48
2023-11-30T01:55:15.569Z,17.30
2023-11-30T01:57:42.931Z,17.55
2023-11-30T02:00:10.654Z,18.02
2023-11-30T02:02:40.047Z,18.59
2023-11-30T02:05:07.500Z,18.57
2023-11-30T02:07:34.210Z,19.35
2023-11-30T02:10:01.000Z,20.72
2023-11-30T02:12:27.853Z,20.82
2023-11-30T02:14:58.392Z,20.33
2023-11-30T02:17:25.046Z,20.12
2023-11-30T02:19:51.703Z,20.16
2023-11-30T02:22:18.316Z,19.98
2023-11-30T02:24:46.002Z,20.52
2023-11-30T02:27:12.723Z,19.71
2023-11-30T02:29:39.450Z,19.13
2023-11-30T02:32:06.209Z,19.61
2023-11-30T02:34:32.818Z,19.41
2023-11-30T02:37:00.070Z,18.84
2023-11-30T02:39:26.762Z,17.97
2023-11-30T02:41:53.456Z,18.16
2023-11-30T02:44:20.069Z,18.31
2023-11-30T02:46:46.703Z,18.52
2023-11-30T02:49:13.327Z,18.22
2023-11-30T02:51:39.985Z,18.35
2023-11-30T02:54:08.093Z,18.33
2023-11-30T02:56:38.982Z,17.42
2023-11-30T02:59:05.622Z,17.48
2023-11-30T03:01:32.362Z,17.56
2023-11-30T03:03:59.029Z,17.28
2023-11-30T03:06:26.902Z,17.57
2023-11-30T03:08:53.625Z,18.46
2023-11-30T03:11:20.316Z,19.12
2023-11-30T03:13:46.937Z,18.15
2023-11-30T03:16:13.595Z,18.68
2023-11-30T03:18:41.223Z,18.28
2023-11-30T03:21:15.553Z,17.83
2023-11-30T03:23:42.336Z,19.01
2023-11-30T03:26:08.962Z,17.37
2023-11-30T03:28:35.580Z,17.31
2023-11-30T03:31:02.222Z,18.39
2023-11-30T03:33:28.888Z,18.09
2023-11-30T03:35:57.003Z,17.60
2023-11-30T03:38:23.760Z,18.91
2023-11-30T03:40:50.439Z,18.57
2023-11-30T03:43:17.306Z,18.53
2023-11-30T03:45:43.984Z,18.43
2023-11-30T03:48:10.661Z,17.79
2023-11-30T03:50:37.396Z,18.80
2023-11-30T03:53:04.174Z,19.15
2023-11-30T03:55:30.999Z,18.39
2023-11-30T03:57:57.650Z,16.95
2023-11-30T04:00:24.354Z,19.03
2023-11-30T04:02:51.080Z,18.43
2023-11-30T04:05:17.865Z,18.87
2023-11-30T04:07:44.723Z,19.27
2023-11-30T04:10:12.465Z,19.69
2023-11-30T04:12:39.259Z,19.99
2023-11-30T04:15:06.842Z,19.92
2023-11-30T04:17:33.575Z,18.99
2023-11-30T04:20:01.868Z,18.14
2023-11-30T04:22:28.501Z,19.28
2023-11-30T04:24:55.265Z,19.58
2023-11-30T04:27:21.930Z,19.70
2023-11-30T04:29:48.636Z,20.66
2023-11-30T04:32:15.323Z,20.74
2023-11-30T04:34:42.052Z,22.25
2023-11-30T04:37:08.666Z,21.74
2023-11-30T04:39:35.332Z,21.62
2023-11-30T04:42:02.575Z,22.16
2023-11-30T04:44:29.821Z,22.75
2023-11-30T04:46:56.564Z,22.48
2023-11-30T04:49:23.425Z,22.34
2023-11-30T04:51:50.096Z,21.97
2023-11-30T04:54:17.170Z,21.52
2023-11-30T04:56:43.820Z,21.32
2023-11-30T04:59:10.460Z,20.42
2023-11-30T05:01:37.470Z,21.16
2023-11-30T05:04:04.523Z,21.86
2023-11-30T05:06:31.483Z,21.59
2023-11-30T05:08:58.127Z,21.47
2023-11-30T05:11:25.255Z,21.77
2023-11-30T05:13:51.883Z,21.94
2023-11-30T05:16:18.713Z,22.18
2023-11-30T05:18:45.351Z,22.94
2023-11-30T05:21:12.178Z,21.89
2023-11-30T05:23:38.824Z,21.87
2023-11-30T05:26:05.595Z,22.28
2023-11-30T05:28:33.488Z,23.12
2023-11-30T05:31:00.474Z,22.94
2023-11-30T05:33:28.963Z,22.41
2023-11-30T05:35:55.864Z,22.95
2023-11-30T05:38:22.577Z,23.42
2023-11-30T05:40:49.244Z,23.18
2023-11-30T05:43:16.554Z,23.28
2023-11-30T05:45:45.134Z,23.51
2023-11-30T05:48:11.956Z,22.83
2023-11-30T05:50:38.666Z,23.93
2023-11-30T05:53:06.576Z,24.43
2023-11-30T05:55:33.298Z,23.44
2023-11-30T05:57:59.931Z,23.40
2023-11-30T06:00:26.655Z,23.13
2023-11-30T06:02:54.090Z,21.54
2023-11-30T06:05:20.881Z,20.80
2023-11-30T06:07:47.514Z,21.56
2023-11-30T06:10:15.290Z,21.26
2023-11-30T06:12:42.439Z,22.04
2023-11-30T06:15:10.844Z,21.27
2023-11-30T06:17:38.001Z,21.05
2023-11-30T06:20:08.039Z,21.89
2023-11-30T06:22:35.968Z,22.39
2023-11-30T06:25:02.601Z,22.28
2023-11-30T06:27:29.244Z,23.85
2023-11-30T06:29:55.913Z,22.29
2023-11-30T06:32:22.764Z,22.85
2023-11-30T06:34:49.494Z,22.59
2023-11-30T06:37:16.205Z,21.32
2023-11-30T06:39:42.895Z,21.95
2023-11-30T06:42:09.531Z,22.95
2023-11-30T06:44:36.172Z,23.28
2023-11-30T06:47:02.871Z,24.75
2023-11-30T06:49:29.853Z,27.31
2023-11-30T06:51:56.469Z,25.66
2023-11-30T06:54:23.588Z,24.69
2023-11-30T06:56:50.396Z,24.92
2023-11-30T06:59:17.027Z,25.05
2023-11-30T07:01:43.808Z,26.80
2023-11-30T07:04:10.613Z,27.35
2023-11-30T07:06:37.322Z,27.40
2023-11-30T07:09:05.202Z,27.22
2023-11-30T07:11:31.817Z,26.81
2023-11-30T07:13:58.521Z,25.09
2023-11-30T07:16:25.264Z,24.78
2023-11-30T07:18:52.947Z,26.44
2023-11-30T07:21:19.726Z,25.07
2023-11-30T07:23:46.662Z,24.54
2023-11-30T07:26:14.545Z,25.23
2023-11-30T07:28:41.737Z,23.68
2023-11-30T07:31:09.047Z,23.88
2023-11-30T07:33:36.975Z,24.98
2023-11-30T07:36:06.349Z,25.29
2023-11-30T07:38:32.965Z,27.01
2023-11-30T07:41:00.906Z,31.32
2023-11-30T07:43:28.209Z,32.80
2023-11-30T07:45:55.055Z,32.50
2023-11-30T07:48:21.853Z,33.05
2023-11-30T07:50:48.825Z,32.01
2023-11-30T07:53:16.009Z,28.28
2023-11-30T07:55:43.110Z,29.77
2023-11-30T07:58:10.211Z,29.00
2023-11-30T08:00:37.245Z,28.17
2023-11-30T08:03:04.537Z,29.10
2023-11-30T08:05:32.458Z,31.04
2023-11-30T08:07:59.811Z,31.21
2023-11-30T08:10:27.456Z,30.91
2023-11-30T08:12:54.708Z,32.13
2023-11-30T08:15:21.965Z,30.97
2023-11-30T08:17:49.777Z,30.16
2023-11-30T08:20:17.455Z,31.09
2023-11-30T08:22:44.635Z,29.80
2023-11-30T08:25:13.202Z,32.06
2023-11-30T08:27:40.482Z,31.80
2023-11-30T08:30:11.137Z,30.58
2023-11-30T08:32:41.266Z,29.57
2023-11-30T08:35:09.717Z,30.15
2023-11-30T08:37:36.828Z,28.73
2023-11-30T08:40:06.069Z,31.91
2023-11-30T08:42:33.533Z,35.11
2023-11-30T08:45:02.055Z,47.38
2023-11-30T08:47:29.364Z,52.57
2023-11-30T08:49:56.269Z,37.00
2023-11-30T08:52:24.851Z,35.31
2023-11-30T08:54:53.362Z,29.38
2023-11-30T08:57:21.790Z,27.73
2023-11-30T08:59:50.674Z,26.76
2023-11-30T09:02:20.208Z,29.52
2023-11-30T09:04:47.602Z,28.64
2023-11-30T09:07:14.764Z,29.42
2023-11-30T09:09:45.878Z,29.00
2023-11-30T09:12:15.012Z,28.77
2023-11-30T09:14:42.385Z,29.44
2023-11-30T09:17:09.755Z,26.14
2023-11-30T09:19:36.957Z,27.62
2023-11-30T09:22:04.856Z,29.42
2023-11-30T09:24:32.415Z,30.94
2023-11-30T09:26:59.829Z,29.30
2023-11-30T09:29:27.362Z,28.23
2023-11-30T09:31:55.747Z,29.26
2023-11-30T09:34:23.886Z,29.12
2023-11-30T09:36:51.428Z,26.76
2023-11-30T09:39:21.018Z,26.46
2023-11-30T09:41:48.625Z,27.84
2023-11-30T09:44:16.104Z,27.15
2023-11-30T09:46:44.025Z,27.01
2023-11-30T09:49:11.325Z,26.68
2023-11-30T09:51:42.543Z,27.84
2023-11-30T09:54:11.054Z,27.63
2023-11-30T09:56:38.070Z,26.33
2023-11-30T09:59:05.216Z,26.07
2023-11-30T10:01:33.814Z,26.31
2023-11-30T10:04:00.991Z,25.68
2023-11-30T10:06:28.061Z,25.16
2023-11-30T10:09:01.948Z,25.92
2023-11-30T10:11:31.835Z,26.39
2023-11-30T10:14:01.022Z,25.15
2023-11-30T10:16:28.497Z,25.20
2023-11-30T10:18:55.863Z,25.63
2023-11-30T10:21:23.155Z,25.53
2023-11-30T10:23:50.624Z,26.74
2023-11-30T10:26:18.243Z,26.76
2023-11-30T10:28:45.442Z,28.94
2023-11-30T10:31:13.944Z,32.60
2023-11-30T10:33:42.551Z,29.23
2023-11-30T10:36:10.110Z,28.89
2023-11-30T10:38:40.306Z,36.25
2023-11-30T10:41:14.237Z,31.92
2023-11-30T10:43:49.387Z,33.89
2023-11-30T10:46:16.654Z,30.48
2023-11-30T10:48:43.897Z,31.20
2023-11-30T10:51:13.208Z,30.68
2023-11-30T10:53:52.117Z,31.35
2023-11-30T10:56:19.389Z,30.69
2023-11-30T10:58:48.577Z,29.99
2023-11-30T11:01:16.377Z,30.75
2023-11-30T11:03:54.857Z,31.05
2023-11-30T11:06:28.678Z,29.86
2023-11-30T11:09:09.277Z,31.31
2023-11-30T11:11:39.554Z,29.54
2023-11-30T11:14:06.762Z,30.59
2023-11-30T11:16:45.470Z,30.86
2023-11-30T11:19:15.291Z,29.77
2023-11-30T11:21:42.859Z,30.55
2023-11-30T11:24:09.929Z,30.50
2023-11-30T11:26:48.206Z,30.60
2023-11-30T11:29:21.516Z,40.58
2023-11-30T11:31:55.696Z,33.51
2023-11-30T11:34:23.117Z,32.11
2023-11-30T11:36:50.401Z,33.27
2023-11-30T11:39:22.643Z,32.43
2023-11-30T11:41:49.936Z,35.60
2023-11-30T11:44:16.989Z,35.09
2023-11-30T11:46:44.664Z,35.34
2023-11-30T11:49:12.404Z,34.38
2023-11-30T11:51:43.949Z,35.42
2023-11-30T11:54:18.425Z,36.33
2023-11-30T11:56:49.382Z,36.75
2023-11-30T11:59:22.900Z,36.07
2023-11-30T12:01:50.676Z,36.64
2023-11-30T12:04:31.455Z,35.45
2023-11-30T12:06:59.158Z,39.05
2023-11-30T12:09:26.336Z,37.06
2023-11-30T12:11:55.777Z,37.28
2023-11-30T12:14:24.052Z,38.02
2023-11-30T12:16:51.363Z,37.95
2023-11-30T12:19:21.135Z,37.89
2023-11-30T12:21:49.399Z,37.46
2023-11-30T12:24:17.087Z,38.02
2023-11-30T12:26:44.520Z,37.98
2023-11-30T12:29:12.345Z,37.24
2023-11-30T12:31:39.746Z,35.76
2023-11-30T12:34:07.892Z,38.27
2023-11-30T12:36:35.231Z,39.52
2023-11-30T12:39:02.395Z,41.04
2023-11-30T12:41:29.627Z,38.36
2023-11-30T12:43:57.395Z,38.73
2023-11-30T12:46:25.115Z,38.64
2023-11-30T12:48:52.777Z,38.90
2023-11-30T12:51:21.280Z,38.78
2023-11-30T12:53:48.546Z,39.52
2023-11-30T12:56:16.091Z,40.66
2023-11-30T12:58:43.395Z,43.18
2023-11-30T13:01:10.754Z,41.99
2023-11-30T13:03:38.317Z,39.95
2023-11-30T13:06:06.593Z,38.40
2023-11-30T13:08:34.453Z,39.09
2023-11-30T13:11:03.467Z,39.06
2023-11-30T13:13:41.712Z,38.95
2023-11-30T13:16:10.839Z,38.46
2023-11-30T13:18:38.341Z,38.32
2023-11-30T13:21:06.571Z,38.68
2023-11-30T13:23:34.173Z,39.41
2023-11-30T13:26:01.585Z,40.46
2023-11-30T13:28:35.564Z,40.91
2023-11-30T13:31:08.407Z,41.67
2023-11-30T13:33:36.075Z,39.20
2023-11-30T13:36:03.972Z,43.18
2023-11-30T13:38:32.280Z,42.65
2023-11-30T13:41:01.936Z,41.18
2023-11-30T13:43:29.532Z,39.43
2023-11-30T13:45:56.566Z,38.94
2023-11-30T13:48:23.862Z,40.05
2023-11-30T13:50:56.448Z,39.84
2023-11-30T13:53:29.566Z,40.31
2023-11-30T13:55:57.908Z,42.97
2023-11-30T13:58:25.756Z,42.17
2023-11-30T14:00:53.625Z,47.70
2023-11-30T14:03:21.240Z,50.22
2023-11-30T14:05:48.510Z,42.13
2023-11-30T14:08:16.304Z,42.75
2023-11-30T14:10:43.676Z,40.64
2023-11-30T14:13:11.141Z,39.09
2023-11-30T14:15:38.737Z,37.19
2023-11-30T14:18:05.916Z,37.66
2023-11-30T14:20:36.183Z,38.93
2023-11-30T14:23:05.130Z,40.81
2023-11-30T14:25:32.355Z,46.92
2023-11-30T14:28:04.918Z,50.40
2023-11-30T14:30:36.960Z,52.30
2023-11-30T14:33:04.445Z,46.85
2023-11-30T14:35:32.943Z,46.44
2023-11-30T14:38:00.736Z,42.18
2023-11-30T14:40:28.258Z,42.79
2023-11-30T14:42:55.896Z,51.08
2023-11-30T14:45:23.088Z,52.16
2023-11-30T14:47:50.230Z,54.02
2023-11-30T14:50:17.375Z,51.50
2023-11-30T14:52:47.925Z,47.12
2023-11-30T14:55:15.100Z,45.29
2023-11-30T14:57:43.650Z,41.66
2023-11-30T15:00:16.220Z,40.78
2023-11-30T15:02:43.851Z,40.07
2023-11-30T15:05:14.560Z,40.24
2023-11-30T15:07:42.459Z,41.67
2023-11-30T15:10:12.643Z,43.90
2023-11-30T15:12:40.250Z,46.33
2023-11-30T15:15:15.375Z,40.01
2023-11-30T15:17:45.696Z,40.98
2023-11-30T15:20:13.969Z,41.27
2023-11-30T15:22:41.850Z,42.27
2023-11-30T15:25:11.688Z,42.39
2023-11-30T15:27:38.899Z,40.72
2023-11-30T15:30:07.986Z,41.06
2023-11-30T15:32:35.132Z,41.73
2023-11-30T15:35:02.372Z,40.52
2023-11-30T15:37:29.885Z,44.53
2023-11-30T15:39:57.281Z,39.66
2023-11-30T15:42:26.045Z,40.01
2023-11-30T15:44:53.718Z,40.55
2023-11-30T15:47:21.097Z,38.74
2023-11-30T15:49:49.181Z,40.26
2023-11-30T15:52:16.449Z,41.68
2023-11-30T15:54:43.953Z,38.93
2023-11-30T15:57:10.941Z,40.36
2023-11-30T15:59:38.253Z,39.19
2023-11-30T16:02:05.801Z,39.99
2023-11-30T16:04:33.105Z,40.08
2023-11-30T16:07:00.489Z,36.93
2023-11-30T16:09:27.642Z,40.47
2023-11-30T16:11:55.660Z,41.12
2023-11-30T16:14:22.950Z,39.48
2023-11-30T16:16:52.401Z,38.38
2023-11-30T16:19:19.244Z,38.39
2023-11-30T16:21:46.421Z,37.18
2023-11-30T16:24:13.239Z,37.75
2023-11-30T16:26:39.898Z,39.72
2023-11-30T16:29:06.486Z,37.26
2023-11-30T16:31:33.157Z,37.06
2023-11-30T16:33:59.894Z,40.37
2023-11-30T16:36:26.891Z,40.92
2023-11-30T16:38:53.642Z,41.70
2023-11-30T16:41:20.364Z,39.15
2023-11-30T16:43:47.034Z,43.33
2023-11-30T16:46:13.914Z,43.11
2023-11-30T16:48:45.027Z,46.17
2023-11-30T16:51:12.591Z,46.88
2023-11-30T16:53:39.239Z,48.54
2023-11-30T16:56:06.043Z,44.89
2023-11-30T16:58:32.803Z,45.59
2023-11-30T17:00:59.553Z,45.18
2023-11-30T17:03:26.702Z,55.46
2023-11-30T17:05:53.735Z,59.48
2023-11-30T17:08:20.485Z,74.08
2023-11-30T17:10:47.606Z,72.04
2023-11-30T17:13:14.371Z,72.84
2023-11-30T17:15:41.064Z,66.02
2023-11-30T17:18:07.801Z,59.80
2023-11-30T17:20:34.443Z,55.74
2023-11-30T17:23:01.057Z,57.03
2023-11-30T17:25:27.897Z,59.22
2023-11-30T17:27:54.869Z,58.24
2023-11-30T17:30:21.692Z,51.34
2023-11-30T17:32:48.527Z,48.20
2023-11-30T17:35:17.200Z,45.99
2023-11-30T17:37:44.275Z,45.28
2023-11-30T17:40:11.955Z,44.80
2023-11-30T17:42:39.024Z,40.85
2023-11-30T17:45:06.206Z,38.56
2023-11-30T17:47:34.374Z,38.27
2023-11-30T17:50:03.092Z,39.46
2023-11-30T17:52:31.117Z,39.26
2023-11-30T17:54:57.980Z,38.94
2023-11-30T17:57:24.856Z,39.27
2023-11-30T17:59:51.598Z,37.30
2023-11-30T18:02:18.285Z,38.61
2023-11-30T18:04:44.988Z,36.92
2023-11-30T18:07:11.705Z,38.09
2023-11-30T18:09:38.598Z,36.39
2023-11-30T18:12:05.654Z,40.60
2023-11-30T18:14:32.587Z,36.31
2023-11-30T18:17:00.415Z,34.36
2023-11-30T18:19:27.128Z,34.03
2023-11-30T18:21:54.171Z,34.97
2023-11-30T18:24:23.370Z,43.37
2023-11-30T18:26:50.147Z,39.25
2023-11-30T18:29:16.807Z,34.19
2023-11-30T18:31:43.443Z,34.44
2023-11-30T18:34:10.066Z,34.06
2023-11-30T18:36:36.735Z,33.42
2023-11-30T18:39:04.023Z,32.69
2023-11-30T18:41:30.728Z,32.46
2023-11-30T18:43:57.452Z,32.80
2023-11-30T18:46:24.206Z,33.19
2023-11-30T18:48:50.841Z,33.06
2023-11-30T18:51:17.472Z,36.57
2023-11-30T18:53:44.165Z,37.38
2023-11-30T18:56:11.075Z,37.99
2023-11-30T18:58:45.196Z,41.45
2023-11-30T19:01:14.961Z,46.25
2023-11-30T19:03:41.820Z,38.85
2023-11-30T19:06:08.800Z,39.84
2023-11-30T19:08:35.612Z,38.48
2023-11-30T19:11:02.214Z,36.11
2023-11-30T19:13:28.826Z,34.97
2023-11-30T19:15:55.541Z,37.37
2023-11-30T19:18:22.255Z,36.04
2023-11-30T19:20:49.019Z,43.25
2023-11-30T19:23:15.698Z,75.10
2023-11-30T19:25:43.731Z,56.73
2023-11-30T19:28:10.385Z,38.66
2023-11-30T19:30:37.089Z,38.43
2023-11-30T19:33:04.002Z,36.41
2023-11-30T19:35:33.477Z,34.72
2023-11-30T19:38:00.518Z,33.40
2023-11-30T19:40:27.268Z,44.42
2023-11-30T19:42:54.011Z,63.55
2023-11-30T19:45:20.748Z,84.88
2023-11-30T19:47:47.499Z,67.48
2023-11-30T19:50:14.476Z,36.61
2023-11-30T19:52:41.471Z,38.19
2023-11-30T19:55:08.758Z,36.85
2023-11-30T19:57:35.826Z,36.80
2023-11-30T20:00:06.126Z,36.35
2023-11-30T20:02:39.105Z,34.66
2023-11-30T20:05:06.053Z,39.16
2023-11-30T20:07:32.701Z,37.09
2023-11-30T20:09:59.411Z,38.23
2023-11-30T20:12:26.147Z,36.43
2023-11-30T20:14:53.009Z,35.50
2023-11-30T20:17:19.649Z,37.46
2023-11-30T20:19:46.476Z,36.20
2023-11-30T20:22:13.122Z,36.18
2023-11-30T20:24:39.833Z,36.77
2023-11-30T20:27:09.569Z,39.76
2023-11-30T20:29:36.293Z,39.05
2023-11-30T20:32:03.072Z,39.67
2023-11-30T20:34:29.734Z,38.37
2023-11-30T20:36:57.386Z,39.74
2023-11-30T20:39:25.644Z,38.80
2023-11-30T20:41:52.356Z,40.38
2023-11-30T20:44:19.020Z,39.30
2023-11-30T20:46:45.722Z,40.18
2023-11-30T20:49:12.477Z,40.78
2023-11-30T20:51:39.143Z,45.35
2023-11-30T20:54:10.019Z,37.68
2023-11-30T20:56:36.962Z,37.58
2023-11-30T20:59:04.031Z,37.63
2023-11-30T21:01:30.951Z,39.00
2023-11-30T21:03:57.937Z,41.82
2023-11-30T21:06:24.799Z,39.41
2023-11-30T21:08:51.483Z,39.12
2023-11-30T21:11:18.270Z,38.41
2023-11-30T21:13:44.982Z,39.02
2023-11-30T21:16:16.440Z,37.24
2023-11-30T21:18:46.188Z,37.73
2023-11-30T21:21:13.858Z,40.26
2023-11-30T21:23:40.537Z,42.28
2023-11-30T21:26:07.396Z,39.24
2023-11-30T21:28:34.040Z,41.29
2023-11-30T21:31:00.846Z,41.08
2023-11-30T21:33:27.669Z,41.09
2023-11-30T21:35:54.411Z,41.14
2023-11-30T21:38:21.075Z,41.06
2023-11-30T21:40:47.759Z,41.06
2023-11-30T21:43:14.383Z,41.52
2023-11-30T21:45:41.044Z,42.58
2023-11-30T21:48:07.748Z,42.23
2023-11-30T21:50:34.777Z,43.53
2023-11-30T21:53:01.414Z,45.74
2023-11-30T21:55:28.248Z,45.23
2023-11-30T21:57:54.882Z,43.96
2023-11-30T22:00:21.602Z,44.50
2023-11-30T22:02:48.423Z,46.38
2023-11-30T22:05:23.718Z,47.83
2023-11-30T22:07:56.958Z,45.92
2023-11-30T22:10:23.600Z,44.68
2023-11-30T22:12:50.424Z,47.13
2023-11-30T22:15:17.109Z,46.13
2023-11-30T22:17:43.914Z,46.27
2023-11-30T22:20:11.017Z,45.92
2023-11-30T22:22:37.665Z,43.80
2023-11-30T22:25:04.528Z,44.73
2023-11-30T22:27:32.019Z,44.36
2023-11-30T22:29:58.652Z,47.84
2023-11-30T22:32:25.314Z,44.88
2023-11-30T22:34:51.940Z,46.25
2023-11-30T22:37:20.541Z,44.09
2023-11-30T22:39:47.266Z,41.94
2023-11-30T22:42:13.925Z,46.73
2023-11-30T22:44:40.516Z,44.85
2023-11-30T22:47:07.273Z,42.73
2023-11-30T22:49:34.061Z,42.25
2023-11-30T22:52:00.893Z,45.07
2023-11-30T22:54:28.781Z,44.35
2023-11-30T22:56:55.590Z,45.71
2023-11-30T22:59:22.357Z,46.13
2023-11-30T23:01:50.519Z,47.16
2023-11-30T23:04:17.675Z,47.53
2023-11-30T23:06:44.470Z,47.11
2023-11-30T23:09:11.119Z,45.09
2023-11-30T23:11:37.764Z,47.90
2023-11-30T23:14:04.445Z,43.83
2023-11-30T23:16:31.232Z,46.83
2023-11-30T23:18:57.922Z,46.93
2023-11-30T23:21:24.747Z,45.97
2023-11-30T23:23:51.390Z,49.22
2023-11-30T23:26:18.046Z,47.05
2023-11-30T23:28:44.745Z,47.34
2023-11-30T23:31:11.443Z,48.89
2023-11-30T23:33:38.191Z,47.32
2023-11-30T23:36:05.400Z,47.90
2023-11-30T23:38:32.016Z,49.31
2023-11-30T23:40:58.643Z,47.13
2023-11-30T23:43:25.374Z,45.95
2023-11-30T23:45:52.116Z,46.73
2023-11-30T23:48:18.816Z,45.25
2023-11-30T23:50:45.545Z,45.58
2023-11-30T23:53:12.496Z,45.16
2023-11-30T23:55:39.130Z,45.71
2023-11-30T23:58:05.765Z,44.82
